createdAt,value
2022-10-17T00:00:58.098Z,100.00
2022-10-17T00:03:47.677Z,100.00
2022-10-17T00:06:29.365Z,100.00
2022-10-17T00:09:11.056Z,100.00
2022-10-17T00:11:52.850Z,100.00
2022-10-17T00:14:35.052Z,100.00
2022-10-17T00:17:16.756Z,100.00
2022-10-17T00:20:00.155Z,100.00
2022-10-17T00:22:43.095Z,100.00
2022-10-17T00:25:25.093Z,100.00
2022-10-17T00:28:09.859Z,100.00
2022-10-17T00:31:03.119Z,100.00
2022-10-17T00:33:45.118Z,100.00
2022-10-17T00:36:27.320Z,100.00
2022-10-17T00:39:09.525Z,100.00
2022-10-17T00:41:51.418Z,100.00
2022-10-17T00:44:34.749Z,100.00
2022-10-17T00:47:22.599Z,100.00
2022-10-17T00:50:07.350Z,100.00
2022-10-17T00:52:49.534Z,100.00
2022-10-17T00:55:35.541Z,100.00
2022-10-17T00:58:19.106Z,100.00
2022-10-17T01:01:02.858Z,100.00
2022-10-17T01:03:44.914Z,100.00
2022-10-17T01:06:27.281Z,100.00
2022-10-17T01:09:09.238Z,100.00
2022-10-17T01:12:06.780Z,100.00
2022-10-17T01:15:11.305Z,100.00
2022-10-17T01:18:08.459Z,100.00
2022-10-17T01:21:00.054Z,100.00
2022-10-17T01:24:14.271Z,100.00
2022-10-17T01:27:26.134Z,100.00
2022-10-17T01:30:29.432Z,100.00
2022-10-17T01:33:19.838Z,100.00
2022-10-17T01:36:05.997Z,100.00
2022-10-17T01:39:15.056Z,100.00
2022-10-17T01:42:14.154Z,100.00
2022-10-17T01:45:13.561Z,100.00
2022-10-17T01:48:00.678Z,100.00
2022-10-17T01:50:48.621Z,100.00
2022-10-17T01:53:36.048Z,100.00
2022-10-17T01:56:19.990Z,100.00
2022-10-17T01:59:13.452Z,100.00
2022-10-17T02:01:57.395Z,100.00
2022-10-17T02:04:41.750Z,100.00
2022-10-17T02:07:23.542Z,100.00
2022-10-17T02:10:15.372Z,100.00
2022-10-17T02:13:27.786Z,100.00
2022-10-17T02:16:37.944Z,100.00
2022-10-17T02:19:55.064Z,100.00
2022-10-17T02:23:01.125Z,100.00
2022-10-17T02:25:51.109Z,100.00
2022-10-17T02:28:47.790Z,100.00
2022-10-17T02:31:36.712Z,100.00
2022-10-17T02:34:41.054Z,100.00
2022-10-17T02:37:27.873Z,100.00
2022-10-17T02:40:14.454Z,100.00
2022-10-17T02:42:58.599Z,100.00
2022-10-17T02:45:40.802Z,100.00
2022-10-17T02:48:31.001Z,100.00
2022-10-17T02:51:24.256Z,100.00
2022-10-17T02:54:10.041Z,100.00
2022-10-17T02:57:02.535Z,100.00
2022-10-17T02:59:46.121Z,100.00
2022-10-17T03:02:28.659Z,100.00
2022-10-17T03:05:12.979Z,100.00
2022-10-17T03:07:56.110Z,100.00
2022-10-17T03:10:39.541Z,100.00
2022-10-17T03:13:21.337Z,100.00
2022-10-17T03:16:03.131Z,100.00
2022-10-17T03:18:47.962Z,100.00
2022-10-17T03:21:32.348Z,100.00
2022-10-17T03:24:14.549Z,100.00
2022-10-17T03:26:56.279Z,100.00
2022-10-17T03:29:38.340Z,100.00
2022-10-17T03:32:20.850Z,100.00
2022-10-17T03:35:03.872Z,100.00
2022-10-17T03:37:45.666Z,100.00
2022-10-17T03:40:27.562Z,100.00
2022-10-17T03:43:11.608Z,100.00
2022-10-17T03:45:54.426Z,100.00
2022-10-17T03:48:36.422Z,100.00
2022-10-17T03:51:19.037Z,100.00
2022-10-17T03:54:05.129Z,100.00
2022-10-17T03:56:47.104Z,100.00
2022-10-17T03:59:31.481Z,100.00
2022-10-17T04:02:17.985Z,100.00
2022-10-17T04:04:59.983Z,100.00
2022-10-17T04:07:41.777Z,100.00
2022-10-17T04:10:24.595Z,100.00
2022-10-17T04:13:07.001Z,100.00
2022-10-17T04:16:00.573Z,100.00
2022-10-17T04:18:43.081Z,100.00
2022-10-17T04:21:27.259Z,100.00
2022-10-17T04:24:11.993Z,100.00
2022-10-17T04:27:05.869Z,100.00
2022-10-17T04:29:50.632Z,100.00
2022-10-17T04:32:39.080Z,100.00
2022-10-17T04:35:29.782Z,100.00
2022-10-17T04:38:16.131Z,100.00
2022-10-17T04:41:04.334Z,100.00
2022-10-17T04:43:48.643Z,100.00
2022-10-17T04:46:34.775Z,100.00
2022-10-17T04:49:16.580Z,100.00
2022-10-17T04:51:59.282Z,100.00
2022-10-17T04:54:50.730Z,100.00
2022-10-17T04:57:35.878Z,100.00
2022-10-17T05:00:31.595Z,100.00
2022-10-17T05:03:24.855Z,100.00
2022-10-17T05:06:12.399Z,100.00
2022-10-17T05:08:54.586Z,100.00
2022-10-17T05:11:36.482Z,100.00
2022-10-17T05:14:18.275Z,100.00
2022-10-17T05:17:00.070Z,100.00
2022-10-17T05:19:43.403Z,100.00
2022-10-17T05:22:25.294Z,100.00
2022-10-17T05:25:07.598Z,100.00
2022-10-17T05:27:49.410Z,100.00
2022-10-17T05:30:36.729Z,100.00
2022-10-17T05:33:23.525Z,100.00
2022-10-17T05:36:07.602Z,100.00
2022-10-17T05:38:51.516Z,100.00
2022-10-17T05:41:33.411Z,100.00
2022-10-17T05:44:15.821Z,100.00
2022-10-17T05:47:00.378Z,100.00
2022-10-17T05:49:49.963Z,100.00
2022-10-17T05:52:36.494Z,100.00
2022-10-17T05:55:25.316Z,100.00
2022-10-17T05:58:07.213Z,100.00
2022-10-17T06:00:52.256Z,100.00
2022-10-17T06:03:34.178Z,100.00
2022-10-17T06:06:20.170Z,100.00
2022-10-17T06:09:03.199Z,100.00
2022-10-17T06:11:48.056Z,100.00
2022-10-17T06:14:30.361Z,100.00
2022-10-17T06:17:16.542Z,100.00
2022-10-17T06:19:59.887Z,100.00
2022-10-17T06:22:42.463Z,100.00
2022-10-17T06:25:31.872Z,100.00
2022-10-17T06:28:13.564Z,100.00
2022-10-17T06:30:55.977Z,100.00
2022-10-17T06:33:38.274Z,100.00
2022-10-17T06:36:20.375Z,100.00
2022-10-17T06:39:02.680Z,100.00
2022-10-17T06:41:50.516Z,100.00
2022-10-17T06:44:34.871Z,100.00
2022-10-17T06:47:37.487Z,100.00
2022-10-17T06:50:29.790Z,100.00
2022-10-17T06:53:28.797Z,100.00
2022-10-17T06:56:49.291Z,100.00
2022-10-17T06:59:44.497Z,100.00
2022-10-17T07:02:32.250Z,100.00
2022-10-17T07:05:16.072Z,100.00
2022-10-17T07:07:57.772Z,100.00
2022-10-17T07:10:40.168Z,100.00
2022-10-17T07:13:23.907Z,100.00
2022-10-17T07:16:07.138Z,100.00
2022-10-17T07:18:51.191Z,100.00
2022-10-17T07:21:36.568Z,100.00
2022-10-17T07:24:21.524Z,100.00
2022-10-17T07:27:08.541Z,100.00
2022-10-17T07:29:50.266Z,100.00
2022-10-17T07:32:38.374Z,100.00
2022-10-17T07:35:21.810Z,100.00
2022-10-17T07:38:03.906Z,100.00
2022-10-17T07:40:45.705Z,100.00
2022-10-17T07:43:28.823Z,100.00
2022-10-17T07:46:11.848Z,100.00
2022-10-17T07:48:53.740Z,100.00
2022-10-17T07:51:36.477Z,100.00
2022-10-17T07:54:18.352Z,100.00
2022-10-17T07:57:00.111Z,100.00
2022-10-17T07:59:42.213Z,100.00
2022-10-17T08:02:26.749Z,99.86
2022-10-17T08:05:08.916Z,100.00
2022-10-17T08:07:54.554Z,100.00
2022-10-17T08:10:37.032Z,99.96
2022-10-17T08:13:19.035Z,99.76
2022-10-17T08:16:07.820Z,99.82
2022-10-17T08:18:50.272Z,99.52
2022-10-17T08:21:32.265Z,99.49
2022-10-17T08:24:14.272Z,98.19
2022-10-17T08:26:58.529Z,98.74
2022-10-17T08:29:41.132Z,98.58
2022-10-17T08:32:27.364Z,97.99
2022-10-17T08:35:10.238Z,96.85
2022-10-17T08:37:52.555Z,95.82
2022-10-17T08:40:35.679Z,95.40
2022-10-17T08:43:36.619Z,95.52
2022-10-17T08:46:20.328Z,94.77
2022-10-17T08:49:12.173Z,93.61
2022-10-17T08:52:01.790Z,92.55
2022-10-17T08:54:47.334Z,92.36
2022-10-17T08:57:29.337Z,91.64
2022-10-17T09:00:18.758Z,90.48
2022-10-17T09:06:40.044Z,89.02
2022-10-17T09:09:29.517Z,88.02
2022-10-17T09:12:23.599Z,87.35
2022-10-17T09:15:43.383Z,85.65
2022-10-17T09:18:29.598Z,85.39
2022-10-17T09:21:53.178Z,85.15
2022-10-17T09:24:37.740Z,81.95
2022-10-17T09:27:36.194Z,80.26
2022-10-17T09:30:33.483Z,79.35
2022-10-17T09:33:35.944Z,78.37
2022-10-17T09:36:37.363Z,78.99
2022-10-17T09:39:23.069Z,77.88
2022-10-17T09:42:05.171Z,77.22
2022-10-17T09:45:13.482Z,75.87
2022-10-17T09:48:17.805Z,75.22
2022-10-17T09:51:14.604Z,73.80
2022-10-17T09:54:07.504Z,74.04
2022-10-17T09:57:06.807Z,72.20
2022-10-17T09:59:58.151Z,70.96
2022-10-17T10:02:41.048Z,70.69
2022-10-17T10:05:22.838Z,68.99
2022-10-17T10:08:13.439Z,69.57
2022-10-17T10:11:00.864Z,68.71
2022-10-17T10:13:43.375Z,69.18
2022-10-17T10:16:32.948Z,67.83
2022-10-17T10:19:31.319Z,67.91
2022-10-17T10:22:18.183Z,66.98
2022-10-17T10:25:16.830Z,67.33
2022-10-17T10:28:00.729Z,67.70
2022-10-17T10:30:48.508Z,67.63
2022-10-17T10:33:32.287Z,68.52
2022-10-17T10:36:14.040Z,67.60
2022-10-17T10:39:01.215Z,66.08
2022-10-17T10:41:48.582Z,66.42
2022-10-17T10:44:33.209Z,65.83
2022-10-17T10:47:30.166Z,66.84
2022-10-17T10:50:31.748Z,66.01
2022-10-17T10:53:32.818Z,64.85
2022-10-17T10:56:41.698Z,63.55
2022-10-17T10:59:38.365Z,62.93
2022-10-17T11:02:31.014Z,63.41
2022-10-17T11:05:28.165Z,62.10
2022-10-17T11:08:20.518Z,61.82
2022-10-17T11:11:25.032Z,61.07
2022-10-17T11:14:38.673Z,61.17
2022-10-17T11:17:43.301Z,60.73
2022-10-17T11:20:53.052Z,60.84
2022-10-17T11:23:44.981Z,61.15
2022-10-17T11:26:29.655Z,60.74
2022-10-17T11:29:13.596Z,60.26
2022-10-17T11:31:58.467Z,61.12
2022-10-17T11:34:46.183Z,60.55
2022-10-17T11:37:34.460Z,60.31
2022-10-17T11:40:24.388Z,60.76
2022-10-17T11:43:20.543Z,61.18
2022-10-17T11:46:10.629Z,61.00
2022-10-17T11:48:59.532Z,60.74
2022-10-17T11:52:00.639Z,60.47
2022-10-17T11:54:50.503Z,59.62
2022-10-17T11:58:02.318Z,59.50
2022-10-17T12:01:08.275Z,59.23
2022-10-17T12:04:06.769Z,59.04
2022-10-17T12:07:01.223Z,59.17
2022-10-17T12:10:00.248Z,59.53
2022-10-17T12:12:41.938Z,60.44
2022-10-17T12:15:23.629Z,59.92
2022-10-17T12:18:05.729Z,59.59
2022-10-17T12:21:01.244Z,59.38
2022-10-17T12:23:52.783Z,58.60
2022-10-17T12:26:34.562Z,59.37
2022-10-17T12:29:30.176Z,59.11
2022-10-17T12:32:13.096Z,59.75
2022-10-17T12:34:57.362Z,59.11
2022-10-17T12:37:48.356Z,57.18
2022-10-17T12:40:35.781Z,57.75
2022-10-17T12:43:17.473Z,57.76
2022-10-17T12:46:04.591Z,58.26
2022-10-17T12:49:00.945Z,56.63
2022-10-17T12:52:11.185Z,56.01
2022-10-17T12:55:14.235Z,56.41
2022-10-17T12:58:03.161Z,56.24
2022-10-17T13:01:18.843Z,56.38
2022-10-17T13:04:04.434Z,56.65
2022-10-17T13:07:21.119Z,56.19
2022-10-17T13:10:05.455Z,55.53
2022-10-17T13:12:48.187Z,55.87
2022-10-17T13:15:42.714Z,56.54
2022-10-17T13:18:43.284Z,56.86
2022-10-17T13:21:33.692Z,56.34
2022-10-17T13:24:29.634Z,55.97
2022-10-17T13:27:30.425Z,56.68
2022-10-17T13:30:32.570Z,56.48
2022-10-17T13:33:40.659Z,56.61
2022-10-17T13:36:24.967Z,57.26
2022-10-17T13:39:17.231Z,57.83
2022-10-17T13:42:04.345Z,57.85
2022-10-17T13:44:49.821Z,57.93
2022-10-17T13:47:38.597Z,57.24
2022-10-17T13:50:46.116Z,56.85
2022-10-17T13:53:33.110Z,56.45
2022-10-17T13:56:29.823Z,56.33
2022-10-17T13:59:24.037Z,55.76
2022-10-17T14:02:12.795Z,55.58
2022-10-17T14:05:18.927Z,55.72
2022-10-17T14:08:13.681Z,56.58
2022-10-17T14:10:56.573Z,57.28
2022-10-17T14:13:38.776Z,57.27
2022-10-17T14:16:21.497Z,57.53
2022-10-17T14:19:06.109Z,57.71
2022-10-17T14:21:55.027Z,57.85
2022-10-17T14:24:37.002Z,58.56
2022-10-17T14:27:53.005Z,59.25
2022-10-17T14:30:57.837Z,59.43
2022-10-17T14:33:50.516Z,59.61
2022-10-17T14:36:42.908Z,59.84
2022-10-17T14:39:27.356Z,60.05
2022-10-17T14:42:19.614Z,59.99
2022-10-17T14:45:08.379Z,60.22
2022-10-17T14:47:51.952Z,60.33
2022-10-17T14:50:33.730Z,60.42
2022-10-17T14:53:15.408Z,60.64
2022-10-17T14:55:59.955Z,60.72
2022-10-17T14:58:41.599Z,60.92
2022-10-17T15:01:23.338Z,61.15
2022-10-17T15:04:05.132Z,61.34
2022-10-17T15:06:55.630Z,61.47
2022-10-17T15:09:37.320Z,61.64
2022-10-17T15:12:21.688Z,61.76
2022-10-17T15:15:03.568Z,61.97
2022-10-17T15:17:45.381Z,62.33
2022-10-17T15:20:30.157Z,62.70
2022-10-17T15:23:11.917Z,62.75
2022-10-17T15:25:54.017Z,63.15
2022-10-17T15:28:35.834Z,63.11
2022-10-17T15:31:21.834Z,63.39
2022-10-17T15:34:03.904Z,63.76
2022-10-17T15:36:52.826Z,63.92
2022-10-17T15:42:34.063Z,64.52
2022-10-17T15:45:18.624Z,64.82
2022-10-17T15:48:05.403Z,65.18
2022-10-17T15:51:32.038Z,65.57
2022-10-17T15:54:14.999Z,66.29
2022-10-17T15:56:58.223Z,66.62
2022-10-17T15:59:40.018Z,67.12
2022-10-17T16:02:23.825Z,67.35
2022-10-17T16:05:15.073Z,67.50
2022-10-17T16:07:57.896Z,67.81
2022-10-17T16:10:40.533Z,68.35
2022-10-17T16:13:26.783Z,68.89
2022-10-17T16:16:12.319Z,69.27
2022-10-17T16:18:54.388Z,69.98
2022-10-17T16:21:39.407Z,70.77
2022-10-17T16:24:21.147Z,71.52
2022-10-17T16:27:06.348Z,72.03
2022-10-17T16:29:50.975Z,72.25
2022-10-17T16:32:33.719Z,72.47
2022-10-17T16:35:27.341Z,72.43
2022-10-17T16:38:09.258Z,72.59
2022-10-17T16:40:51.256Z,73.15
2022-10-17T16:43:36.619Z,73.95
2022-10-17T16:46:19.209Z,74.11
2022-10-17T16:49:00.938Z,74.38
2022-10-17T16:51:42.628Z,74.94
2022-10-17T16:54:24.761Z,75.55
2022-10-17T16:57:06.523Z,76.03
2022-10-17T16:59:48.416Z,76.66
2022-10-17T17:02:30.359Z,76.71
2022-10-17T17:05:12.419Z,76.92
2022-10-17T17:07:56.051Z,77.15
2022-10-17T17:10:37.741Z,77.43
2022-10-17T17:13:19.738Z,77.54
2022-10-17T17:16:45.060Z,77.82
2022-10-17T17:19:27.563Z,78.31
2022-10-17T17:22:09.356Z,78.21
2022-10-17T17:24:51.153Z,78.01
2022-10-17T17:27:33.077Z,78.23
2022-10-17T17:30:15.500Z,78.46
2022-10-17T17:32:58.226Z,78.69
2022-10-17T17:35:40.882Z,78.66
2022-10-17T17:38:22.778Z,79.02
2022-10-17T17:44:03.242Z,79.22
2022-10-17T17:46:45.778Z,79.20
2022-10-17T17:49:28.115Z,79.45
2022-10-17T17:52:10.588Z,79.71
2022-10-17T17:54:52.279Z,79.76
2022-10-17T17:57:35.197Z,79.88
2022-10-17T18:00:17.604Z,79.99
2022-10-17T18:02:59.400Z,80.02
2022-10-17T18:05:41.092Z,80.32
2022-10-17T18:08:23.371Z,80.55
2022-10-17T18:11:05.297Z,80.51
2022-10-17T18:13:47.391Z,80.75
2022-10-17T18:16:31.096Z,80.86
2022-10-17T18:19:13.128Z,81.07
2022-10-17T18:21:54.819Z,81.08
2022-10-17T18:24:36.612Z,81.50
2022-10-17T18:27:18.304Z,82.28
2022-10-17T18:29:59.995Z,82.74
2022-10-17T18:32:41.889Z,83.01
2022-10-17T18:35:23.684Z,83.36
2022-10-17T18:38:05.347Z,83.33
2022-10-17T18:40:50.644Z,83.12
2022-10-17T18:43:34.491Z,83.22
2022-10-17T18:46:26.119Z,83.35
2022-10-17T18:49:10.264Z,83.33
2022-10-17T18:51:54.928Z,83.30
2022-10-17T18:54:40.460Z,83.51
2022-10-17T18:57:25.998Z,83.83
2022-10-17T19:00:14.025Z,84.42
2022-10-17T19:02:56.227Z,84.74
2022-10-17T19:05:41.889Z,85.13
2022-10-17T19:08:23.602Z,85.40
2022-10-17T19:11:10.824Z,85.60
2022-10-17T19:13:54.461Z,85.92
2022-10-17T19:16:37.505Z,86.26
2022-10-17T19:19:25.011Z,86.53
2022-10-17T19:22:07.036Z,87.11
2022-10-17T19:24:48.801Z,87.79
2022-10-17T19:27:31.821Z,87.91
2022-10-17T19:30:14.333Z,88.65
2022-10-17T19:32:56.435Z,88.85
2022-10-17T19:35:38.227Z,88.77
2022-10-17T19:38:19.919Z,89.00
2022-10-17T19:41:07.009Z,89.01
2022-10-17T19:43:49.137Z,89.04
2022-10-17T19:46:32.262Z,89.15
2022-10-17T19:49:14.773Z,88.77
2022-10-17T19:51:56.568Z,88.92
2022-10-17T19:54:40.668Z,89.27
2022-10-17T19:57:22.447Z,89.03
2022-10-17T20:00:04.782Z,89.28
2022-10-17T20:02:53.363Z,89.53
2022-10-17T20:05:38.126Z,89.79
2022-10-17T20:08:20.485Z,90.32
2022-10-17T20:11:04.683Z,90.59
2022-10-17T20:13:47.089Z,90.66
2022-10-17T20:16:32.212Z,90.79
2022-10-17T20:19:14.055Z,90.94
2022-10-17T20:21:55.748Z,90.92
2022-10-17T20:24:37.439Z,90.61
2022-10-17T20:27:19.231Z,90.35
2022-10-17T20:30:02.563Z,90.62
2022-10-17T20:32:44.662Z,90.84
2022-10-17T20:35:26.386Z,91.12
2022-10-17T20:38:08.018Z,91.21
2022-10-17T20:40:52.054Z,91.10
2022-10-17T20:43:38.398Z,91.03
2022-10-17T20:46:36.382Z,91.10
2022-10-17T20:49:20.583Z,90.91
2022-10-17T20:52:02.614Z,90.86
2022-10-17T20:54:44.405Z,90.66
2022-10-17T20:57:26.092Z,90.43
2022-10-17T21:00:08.604Z,90.49
2022-10-17T21:02:50.534Z,90.42
2022-10-17T21:05:32.394Z,90.29
2022-10-17T21:08:14.597Z,90.00
2022-10-17T21:11:10.419Z,89.91
2022-10-17T21:13:59.663Z,89.77
2022-10-17T21:16:41.970Z,89.56
2022-10-17T21:19:34.665Z,89.51
2022-10-17T21:23:00.577Z,89.30
2022-10-17T21:25:42.224Z,89.56
2022-10-17T21:28:23.908Z,89.46
2022-10-17T21:31:18.032Z,89.31
2022-10-17T21:34:05.458Z,89.08
2022-10-17T21:36:48.399Z,88.93
2022-10-17T21:39:33.448Z,88.90
2022-10-17T21:42:15.141Z,88.97
2022-10-17T21:44:56.829Z,89.06
2022-10-17T21:47:38.645Z,88.98
2022-10-17T21:50:23.488Z,88.83
2022-10-17T21:53:05.281Z,88.81
2022-10-17T21:55:46.915Z,88.92
2022-10-17T21:58:29.107Z,88.80
2022-10-17T22:01:16.698Z,88.63
2022-10-17T22:04:01.075Z,88.72
2022-10-17T22:06:44.362Z,88.62
2022-10-17T22:09:27.067Z,88.43
2022-10-17T22:12:08.894Z,88.21
2022-10-17T22:14:50.586Z,87.87
2022-10-17T22:17:32.426Z,87.96
2022-10-17T22:20:14.480Z,88.25
2022-10-17T22:22:56.170Z,88.97
2022-10-17T22:25:37.860Z,89.36
2022-10-17T22:28:19.551Z,90.16
2022-10-17T22:31:01.552Z,90.46
2022-10-17T22:33:43.415Z,90.91
2022-10-17T22:36:25.237Z,91.21
2022-10-17T22:39:07.031Z,91.56
2022-10-17T22:41:48.825Z,91.57
2022-10-17T22:44:30.516Z,91.76
2022-10-17T22:47:12.206Z,91.63
2022-10-17T22:49:53.839Z,91.74
2022-10-17T22:52:35.596Z,91.71
2022-10-17T22:55:17.483Z,91.55
2022-10-17T22:57:59.127Z,91.30
2022-10-17T23:00:40.768Z,91.21
2022-10-17T23:03:23.808Z,91.25
2022-10-17T23:06:05.682Z,91.36
2022-10-17T23:08:48.606Z,91.54
2022-10-17T23:11:30.292Z,91.74
2022-10-17T23:14:12.016Z,91.75
2022-10-17T23:16:53.673Z,91.79
2022-10-17T23:19:35.671Z,91.88
2022-10-17T23:22:17.465Z,91.84
2022-10-17T23:24:59.155Z,91.85
2022-10-17T23:27:40.846Z,91.78
2022-10-17T23:30:22.639Z,91.53
2022-10-17T23:33:04.542Z,91.87
2022-10-17T23:35:46.226Z,91.98
2022-10-17T23:38:27.917Z,92.07
2022-10-17T23:41:09.916Z,91.97
2022-10-17T23:43:51.708Z,92.04
2022-10-17T23:46:33.401Z,92.00
2022-10-17T23:49:15.194Z,92.16
2022-10-17T23:51:56.883Z,92.43
2022-10-17T23:54:38.618Z,92.51
2022-10-17T23:57:20.470Z,92.42
